createdAt,value
2023-04-02T00:00:29.422Z,98981.97
2023-04-02T00:04:11.641Z,98984.69
2023-04-02T00:07:26.043Z,98990.78
2023-04-02T00:10:32.110Z,98991.69
2023-04-02T00:13:36.484Z,98993.47
2023-04-02T00:16:38.305Z,98994.28
2023-04-02T00:19:45.758Z,98995.13
2023-04-02T00:22:48.921Z,98998.63
2023-04-02T00:25:52.361Z,99003.78
2023-04-02T00:28:54.644Z,99004.69
2023-04-02T00:31:59.833Z,98999.34
2023-04-02T00:35:02.244Z,99002.81
2023-04-02T00:38:04.183Z,99002.69
2023-04-02T00:41:07.948Z,99005.22
2023-04-02T00:44:11.581Z,99007.63
2023-04-02T00:47:18.791Z,99016.34
2023-04-02T00:50:27.329Z,99012.78
2023-04-02T00:53:30.732Z,99017.91
2023-04-02T00:56:39.241Z,99025.88
2023-04-02T00:59:51.088Z,99015.34
2023-04-02T01:03:30.503Z,99019.78
2023-04-02T01:06:35.892Z,99020.75
2023-04-02T01:09:54.198Z,99032.34
2023-04-02T01:13:07.490Z,99033.25
2023-04-02T01:16:17.673Z,99037.66
2023-04-02T01:19:48.798Z,99041.22
2023-04-02T01:22:56.862Z,99039.47
2023-04-02T01:26:04.697Z,99040.38
2023-04-02T01:29:12.049Z,99035.09
2023-04-02T01:32:16.955Z,99036.84
2023-04-02T01:35:18.953Z,99040.38
2023-04-02T01:38:27.279Z,99043.88
2023-04-02T01:41:34.312Z,99044.81
2023-04-02T01:44:41.646Z,99037.63
2023-04-02T01:47:44.308Z,99035.81
2023-04-02T01:50:49.154Z,99038.47
2023-04-02T01:53:50.878Z,99037.56
2023-04-02T01:56:52.800Z,99033.03
2023-04-02T01:59:55.958Z,99039.28
2023-04-02T02:03:00.180Z,99042.69
2023-04-02T02:06:03.007Z,99041.75
2023-04-02T02:09:06.963Z,99045.16
2023-04-02T02:12:12.484Z,99046.88
2023-04-02T02:15:18.096Z,99038.94
2023-04-02T02:18:21.925Z,99039.75
2023-04-02T02:21:27.974Z,99045.91
2023-04-02T02:24:32.812Z,99051.16
2023-04-02T02:27:45.548Z,99044.06
2023-04-02T02:30:53.335Z,99048.47
2023-04-02T02:34:02.294Z,99044.94
2023-04-02T02:37:06.809Z,99042.31
2023-04-02T02:40:13.001Z,99051.16
2023-04-02T02:43:16.686Z,99050.22
2023-04-02T02:46:23.809Z,99048.44
2023-04-02T02:49:28.646Z,99049.28
2023-04-02T02:52:33.025Z,99044.94
2023-04-02T02:55:37.462Z,99048.50
2023-04-02T02:58:40.092Z,99043.94
2023-04-02T03:01:44.394Z,99035.97
2023-04-02T03:04:51.855Z,99049.16
2023-04-02T03:07:56.362Z,99043.84
2023-04-02T03:11:04.692Z,99042.00
2023-04-02T03:14:18.242Z,99044.66
2023-04-02T03:17:27.966Z,99031.47
2023-04-02T03:20:37.870Z,99035.00
2023-04-02T03:23:41.570Z,99037.69
2023-04-02T03:26:50.171Z,99042.06
2023-04-02T03:30:03.278Z,99044.78
2023-04-02T03:33:11.458Z,99050.06
2023-04-02T03:36:19.915Z,99053.59
2023-04-02T03:39:27.069Z,99054.44
2023-04-02T03:42:37.146Z,99046.56
2023-04-02T03:45:42.046Z,99054.50
2023-04-02T03:48:49.262Z,99051.00
2023-04-02T03:51:57.467Z,99052.66
2023-04-02T03:55:01.664Z,99053.56
2023-04-02T03:58:09.959Z,99050.13
2023-04-02T04:01:20.293Z,99053.47
2023-04-02T04:04:26.514Z,99059.78
2023-04-02T04:07:32.426Z,99059.69
2023-04-02T04:10:35.680Z,99065.06
2023-04-02T04:13:44.267Z,99065.91
2023-04-02T04:16:51.302Z,99072.06
2023-04-02T04:19:59.373Z,99070.44
2023-04-02T04:23:16.287Z,99074.00
2023-04-02T04:26:23.082Z,99074.94
2023-04-02T04:29:35.170Z,99081.94
2023-04-02T04:32:39.735Z,99089.03
2023-04-02T04:35:49.322Z,99091.72
2023-04-02T04:38:52.182Z,99096.09
2023-04-02T04:41:56.598Z,99089.97
2023-04-02T04:45:03.276Z,99094.44
2023-04-02T04:48:10.242Z,99098.91
2023-04-02T04:51:19.905Z,99100.66
2023-04-02T04:54:26.659Z,99098.91
2023-04-02T04:57:33.314Z,99101.53
2023-04-02T05:00:44.079Z,99104.25
2023-04-02T05:03:50.970Z,99109.56
2023-04-02T05:06:57.288Z,99103.25
2023-04-02T05:10:04.348Z,99113.88
2023-04-02T05:13:14.069Z,99112.00
2023-04-02T05:16:22.841Z,99109.34
2023-04-02T05:19:31.375Z,99111.94
2023-04-02T05:22:41.968Z,99122.41
2023-04-02T05:25:55.277Z,99120.50
2023-04-02T05:29:01.732Z,99123.16
2023-04-02T05:32:09.219Z,99123.84
2023-04-02T05:35:16.662Z,99125.47
2023-04-02T05:38:22.999Z,99124.41
2023-04-02T05:41:27.055Z,99125.16
2023-04-02T05:44:31.023Z,99127.75
2023-04-02T05:47:34.243Z,99126.56
2023-04-02T05:50:41.008Z,99130.97
2023-04-02T05:53:50.963Z,99131.81
2023-04-02T05:56:55.811Z,99135.16
2023-04-02T06:00:00.552Z,99139.53
2023-04-02T06:03:06.201Z,99131.69
2023-04-02T06:06:17.495Z,99133.28
2023-04-02T06:09:29.378Z,99136.81
2023-04-02T06:12:37.760Z,99147.13
2023-04-02T06:15:39.599Z,99142.50
2023-04-02T06:18:43.059Z,99137.84
2023-04-02T06:21:45.398Z,99154.38
2023-04-02T06:24:56.091Z,99155.91
2023-04-02T06:28:01.452Z,99163.66
2023-04-02T06:31:07.900Z,99159.03
2023-04-02T06:34:15.888Z,99160.66
2023-04-02T06:37:24.584Z,99154.38
2023-04-02T06:40:40.520Z,99162.19
2023-04-02T06:43:44.417Z,99165.09
2023-04-02T06:46:51.796Z,99165.59
2023-04-02T06:50:01.305Z,99171.09
2023-04-02T06:53:07.020Z,99174.53
2023-04-02T06:56:21.977Z,99175.41
2023-04-02T06:59:24.216Z,99176.88
2023-04-02T07:02:31.297Z,99172.28
2023-04-02T07:05:33.326Z,99180.78
2023-04-02T07:08:35.286Z,99181.56
2023-04-02T07:11:38.841Z,99176.75
2023-04-02T07:14:40.661Z,99176.19
2023-04-02T07:17:42.735Z,99177.78
2023-04-02T07:20:44.619Z,99185.69
2023-04-02T07:23:46.429Z,99181.78
2023-04-02T07:26:49.788Z,99187.75
2023-04-02T07:29:51.756Z,99193.16
2023-04-02T07:32:53.530Z,99194.84
2023-04-02T07:35:57.040Z,99203.13
2023-04-02T07:38:59.101Z,99199.53
2023-04-02T07:42:02.671Z,99210.56
2023-04-02T07:45:06.111Z,99201.84
2023-04-02T07:48:10.004Z,99202.34
2023-04-02T07:51:17.182Z,99205.88
2023-04-02T07:54:18.890Z,99209.28
2023-04-02T07:57:22.096Z,99210.22
2023-04-02T08:00:24.900Z,99205.66
2023-04-02T08:03:26.934Z,99204.00
2023-04-02T08:06:29.022Z,99212.97
2023-04-02T08:09:30.709Z,99213.50
2023-04-02T08:12:33.763Z,99216.69
2023-04-02T08:15:35.796Z,99217.91
2023-04-02T08:18:37.832Z,99218.72
2023-04-02T08:21:39.541Z,99218.69
2023-04-02T08:24:41.236Z,99223.00
2023-04-02T08:27:46.842Z,99221.28
2023-04-02T08:30:49.015Z,99225.06
2023-04-02T08:33:50.781Z,99232.94
2023-04-02T08:36:56.465Z,99217.94
2023-04-02T08:39:58.154Z,99222.25
2023-04-02T08:43:24.125Z,99231.13
2023-04-02T08:46:30.640Z,99221.97
2023-04-02T08:49:37.689Z,99227.72
2023-04-02T08:52:39.714Z,99221.53
2023-04-02T08:55:45.422Z,99220.22
2023-04-02T08:58:50.910Z,99235.16
2023-04-02T09:01:58.089Z,99234.28
2023-04-02T09:05:04.393Z,99220.31
2023-04-02T09:08:17.764Z,99234.13
2023-04-02T09:11:24.439Z,99228.56
2023-04-02T09:14:39.157Z,99241.47
2023-04-02T09:17:53.687Z,99239.47
2023-04-02T09:20:56.358Z,99231.53
2023-04-02T09:23:58.108Z,99236.06
2023-04-02T09:26:59.889Z,99233.94
2023-04-02T09:30:10.850Z,99241.72
2023-04-02T09:33:12.889Z,99239.69
2023-04-02T09:36:33.992Z,99241.72
2023-04-02T09:39:35.784Z,99248.47
2023-04-02T09:42:37.691Z,99246.22
2023-04-02T09:45:41.508Z,99260.16
2023-04-02T09:48:45.488Z,99249.88
2023-04-02T09:52:07.506Z,99238.69
2023-04-02T09:55:22.538Z,99240.53
2023-04-02T09:58:24.201Z,99246.53
2023-04-02T10:01:30.100Z,99250.72
2023-04-02T10:04:37.480Z,99249.41
2023-04-02T10:07:41.387Z,99244.66
2023-04-02T10:10:46.486Z,99247.13
2023-04-02T10:13:52.899Z,99247.50
2023-04-02T10:16:59.677Z,99252.66
2023-04-02T10:20:05.793Z,99240.94
2023-04-02T10:23:15.527Z,99240.53
2023-04-02T10:26:46.262Z,99238.38
2023-04-02T10:30:09.970Z,99234.47
2023-04-02T10:33:18.852Z,99228.25
2023-04-02T10:36:28.732Z,99231.81
2023-04-02T10:39:38.975Z,99240.00
2023-04-02T10:42:51.388Z,99236.19
2023-04-02T10:46:00.706Z,99233.94
2023-04-02T10:49:16.784Z,99235.22
2023-04-02T10:52:24.154Z,99232.69
2023-04-02T10:55:30.350Z,99233.47
2023-04-02T10:58:37.746Z,99223.78
2023-04-02T11:01:42.872Z,99241.72
2023-04-02T11:04:47.017Z,99236.63
2023-04-02T11:07:57.281Z,99235.69
2023-04-02T11:11:04.556Z,99226.53
2023-04-02T11:14:12.818Z,99227.25
2023-04-02T11:17:15.944Z,99231.78
2023-04-02T11:20:57.335Z,99220.16
2023-04-02T11:24:01.572Z,99222.97
2023-04-02T11:27:15.757Z,99225.69
2023-04-02T11:30:23.990Z,99222.00
2023-04-02T11:33:42.246Z,99228.88
2023-04-02T11:37:07.740Z,99242.25
2023-04-02T11:40:48.395Z,99243.88
2023-04-02T11:43:52.208Z,99236.63
2023-04-02T11:47:18.011Z,99235.53
2023-04-02T11:50:30.842Z,99221.63
2023-04-02T11:53:34.693Z,99240.19
2023-04-02T11:56:45.766Z,99237.00
2023-04-02T12:00:00.240Z,99228.56
2023-04-02T12:03:24.099Z,99236.84
2023-04-02T12:06:34.405Z,99242.69
2023-04-02T12:09:44.736Z,99242.81
2023-04-02T12:12:49.122Z,99242.84
2023-04-02T12:15:52.723Z,99242.16
2023-04-02T12:18:54.868Z,99245.78
2023-04-02T12:21:58.385Z,99237.88
2023-04-02T12:25:04.030Z,99237.22
2023-04-02T12:28:15.350Z,99239.72
2023-04-02T12:31:17.294Z,99230.06
2023-04-02T12:34:21.830Z,99234.56
2023-04-02T12:37:26.184Z,99227.72
2023-04-02T12:40:28.556Z,99229.97
2023-04-02T12:43:33.406Z,99228.00
2023-04-02T12:46:36.041Z,99214.47
2023-04-02T12:49:40.152Z,99209.50
2023-04-02T12:52:45.290Z,99224.25
2023-04-02T12:55:48.518Z,99221.75
2023-04-02T12:58:56.343Z,99218.50
2023-04-02T13:01:59.958Z,99232.47
2023-04-02T13:05:02.274Z,99232.25
2023-04-02T13:08:04.860Z,99237.97
2023-04-02T13:11:06.987Z,99231.06
2023-04-02T13:14:19.378Z,99220.47
2023-04-02T13:17:42.674Z,99231.84
2023-04-02T13:20:55.653Z,99238.31
2023-04-02T13:23:57.532Z,99231.16
2023-04-02T13:27:00.754Z,99237.09
2023-04-02T13:30:09.650Z,99234.41
2023-04-02T13:33:11.325Z,99233.34
2023-04-02T13:36:14.748Z,99235.63
2023-04-02T13:39:18.349Z,99230.25
2023-04-02T13:42:20.409Z,99236.69
2023-04-02T13:45:26.617Z,99235.13
2023-04-02T13:48:28.635Z,99230.59
2023-04-02T13:51:36.438Z,99235.50
2023-04-02T13:54:46.121Z,99228.66
2023-04-02T13:57:49.142Z,99235.28
2023-04-02T14:00:53.356Z,99236.16
2023-04-02T14:03:56.184Z,99234.28
2023-04-02T14:07:24.764Z,99238.53
2023-04-02T14:10:39.740Z,99232.16
2023-04-02T14:14:00.236Z,99230.91
2023-04-02T14:17:16.008Z,99235.72
2023-04-02T14:20:33.569Z,99237.72
2023-04-02T14:23:48.451Z,99235.25
2023-04-02T14:27:04.375Z,99236.94
2023-04-02T14:30:15.264Z,99227.25
2023-04-02T14:33:33.342Z,99235.19
2023-04-02T14:36:45.688Z,99230.94
2023-04-02T14:39:57.369Z,99236.38
2023-04-02T14:43:04.091Z,99243.16
2023-04-02T14:46:07.719Z,99241.84
2023-04-02T14:49:24.142Z,99231.16
2023-04-02T14:52:28.808Z,99235.66
2023-04-02T14:55:36.280Z,99240.34
2023-04-02T14:58:43.480Z,99242.31
2023-04-02T15:01:49.471Z,99239.97
2023-04-02T15:04:59.586Z,99248.41
2023-04-02T15:08:07.120Z,99263.06
2023-04-02T15:11:15.101Z,99260.78
2023-04-02T15:14:20.471Z,99323.50
2023-04-02T15:17:23.548Z,99339.19
2023-04-02T15:20:37.124Z,99331.50
2023-04-02T15:23:51.682Z,99342.84
2023-04-02T15:27:01.425Z,99341.06
2023-04-02T15:30:11.272Z,99343.41
2023-04-02T15:33:38.702Z,99360.69
2023-04-02T15:37:01.600Z,99361.84
2023-04-02T15:40:20.209Z,99367.47
2023-04-02T15:43:28.968Z,99378.41
2023-04-02T15:46:43.249Z,99382.03
2023-04-02T15:49:53.690Z,99378.63
2023-04-02T15:53:00.959Z,99382.28
2023-04-02T15:56:14.949Z,99385.81
2023-04-02T15:59:48.920Z,99377.09
2023-04-02T16:03:05.440Z,99368.25
2023-04-02T16:06:28.683Z,99373.50
2023-04-02T16:09:45.410Z,99378.94
2023-04-02T16:12:49.948Z,99390.38
2023-04-02T16:15:56.635Z,99392.06
2023-04-02T16:19:03.531Z,99396.50
2023-04-02T16:22:12.687Z,99392.94
2023-04-02T16:25:20.149Z,99407.22
2023-04-02T16:28:28.235Z,99398.41
2023-04-02T16:31:41.395Z,99403.81
2023-04-02T16:34:55.084Z,99398.38
2023-04-02T16:38:11.864Z,99409.25
2023-04-02T16:41:22.984Z,99412.84
2023-04-02T16:44:32.443Z,99411.09
2023-04-02T16:47:53.732Z,99419.75
2023-04-02T16:51:07.543Z,99421.69
2023-04-02T16:54:14.836Z,99424.16
2023-04-02T16:57:30.450Z,99414.00
2023-04-02T17:00:39.667Z,99427.25
2023-04-02T17:04:01.098Z,99433.03
2023-04-02T17:07:15.281Z,99432.34
2023-04-02T17:10:29.312Z,99434.16
2023-04-02T17:13:40.181Z,99431.34
2023-04-02T17:16:44.975Z,99431.31
2023-04-02T17:19:49.958Z,99430.19
2023-04-02T17:22:53.804Z,99440.75
2023-04-02T17:26:02.107Z,99441.81
2023-04-02T17:29:10.121Z,99442.44
2023-04-02T17:32:18.663Z,99457.84
2023-04-02T17:35:30.081Z,99449.94
2023-04-02T17:38:41.025Z,99443.56
2023-04-02T17:41:48.439Z,99450.66
2023-04-02T17:45:03.266Z,99450.88
2023-04-02T17:48:15.726Z,99458.00
2023-04-02T17:51:25.797Z,99463.97
2023-04-02T17:54:40.507Z,99462.91
2023-04-02T17:57:52.263Z,99472.00
2023-04-02T18:01:07.069Z,99472.94
2023-04-02T18:04:22.324Z,99488.81
2023-04-02T18:07:39.652Z,99496.84
2023-04-02T18:10:51.292Z,99492.28
2023-04-02T18:13:59.871Z,99500.97
2023-04-02T18:17:15.214Z,99501.19
2023-04-02T18:20:29.106Z,99507.16
2023-04-02T18:23:43.275Z,99517.84
2023-04-02T18:26:53.348Z,99529.44
2023-04-02T18:30:07.190Z,99537.31
2023-04-02T18:33:26.698Z,99545.97
2023-04-02T18:36:38.708Z,99549.69
2023-04-02T18:39:55.290Z,99563.16
2023-04-02T18:43:07.695Z,99559.03
2023-04-02T18:46:21.707Z,99568.94
2023-04-02T18:49:34.049Z,99573.31
2023-04-02T18:52:38.311Z,99577.78
2023-04-02T18:55:46.091Z,99575.94
2023-04-02T18:58:56.994Z,99585.75
2023-04-02T19:02:07.338Z,99582.91
2023-04-02T19:05:24.380Z,99589.09
2023-04-02T19:08:33.351Z,99593.59
2023-04-02T19:11:36.133Z,99597.94
2023-04-02T19:14:39.746Z,99593.53
2023-04-02T19:17:47.356Z,99600.50
2023-04-02T19:20:57.683Z,99604.97
2023-04-02T19:24:17.233Z,99610.25
2023-04-02T19:27:25.857Z,99606.72
2023-04-02T19:30:41.866Z,99616.47
2023-04-02T19:33:50.569Z,99624.47
2023-04-02T19:37:00.709Z,99630.66
2023-04-02T19:40:21.524Z,99629.81
2023-04-02T19:43:24.360Z,99638.66
2023-04-02T19:46:28.213Z,99650.22
2023-04-02T19:49:35.483Z,99652.88
2023-04-02T19:52:40.350Z,99657.34
2023-04-02T19:55:43.802Z,99656.59
2023-04-02T19:58:46.457Z,99656.66
2023-04-02T20:01:51.346Z,99660.25
2023-04-02T20:04:54.298Z,99663.84
2023-04-02T20:07:58.307Z,99662.16
2023-04-02T20:11:01.138Z,99662.22
2023-04-02T20:14:04.511Z,99673.72
2023-04-02T20:17:07.983Z,99669.31
2023-04-02T20:20:12.221Z,99684.38
2023-04-02T20:23:16.697Z,99680.88
2023-04-02T20:26:19.022Z,99684.38
2023-04-02T20:29:21.282Z,99689.66
2023-04-02T20:32:24.772Z,99693.22
2023-04-02T20:35:26.770Z,99701.19
2023-04-02T20:38:32.182Z,99707.34
2023-04-02T20:41:34.157Z,99707.38
2023-04-02T20:44:35.971Z,99709.19
2023-04-02T20:47:38.181Z,99713.56
2023-04-02T20:50:40.205Z,99712.75
2023-04-02T20:53:44.339Z,99719.00
2023-04-02T20:56:46.498Z,99721.66
2023-04-02T20:59:48.460Z,99726.06
2023-04-02T21:02:50.300Z,99730.47
2023-04-02T21:05:52.004Z,99728.69
2023-04-02T21:08:55.126Z,99731.41
2023-04-02T21:11:56.805Z,99737.59
2023-04-02T21:15:00.231Z,99738.50
2023-04-02T21:18:03.970Z,99742.03
2023-04-02T21:21:07.432Z,99749.97
2023-04-02T21:24:10.729Z,99750.88
2023-04-02T21:27:12.396Z,99753.50
2023-04-02T21:30:14.395Z,99749.13
2023-04-02T21:33:16.098Z,99764.09
2023-04-02T21:36:20.032Z,99762.34
2023-04-02T21:39:24.065Z,99766.69
2023-04-02T21:42:25.709Z,99772.00
2023-04-02T21:45:28.082Z,99776.38
2023-04-02T21:48:29.872Z,99781.69
2023-04-02T21:51:33.642Z,99784.34
2023-04-02T21:54:36.685Z,99802.81
2023-04-02T21:57:38.465Z,99800.19
2023-04-02T22:00:40.250Z,99807.22
2023-04-02T22:03:42.282Z,99819.63
2023-04-02T22:06:45.252Z,99819.63
2023-04-02T22:09:48.559Z,99820.47
2023-04-02T22:12:50.227Z,99821.34
2023-04-02T22:15:51.915Z,99826.63
2023-04-02T22:18:55.163Z,99831.03
2023-04-02T22:21:57.353Z,99837.19
2023-04-02T22:25:00.636Z,99831.03
2023-04-02T22:28:02.344Z,99833.69
2023-04-02T22:31:05.663Z,99831.09
2023-04-02T22:34:07.631Z,99838.16
2023-04-02T22:37:09.292Z,99844.31
2023-04-02T22:40:12.839Z,99846.03
2023-04-02T22:43:14.496Z,99852.25
2023-04-02T22:46:18.011Z,99841.59
2023-04-02T22:49:19.803Z,99849.50
2023-04-02T22:52:21.512Z,99853.88
2023-04-02T22:55:24.595Z,99851.22
2023-04-02T22:58:26.283Z,99853.84
2023-04-02T23:01:29.969Z,99865.31
2023-04-02T23:04:31.721Z,99862.63
2023-04-02T23:07:33.850Z,99871.44
2023-04-02T23:10:37.347Z,99870.56
2023-04-02T23:13:39.573Z,99871.47
2023-04-02T23:16:41.247Z,99872.34
2023-04-02T23:19:42.952Z,99876.75
2023-04-02T23:22:44.625Z,99881.16
2023-04-02T23:25:47.926Z,99874.97
2023-04-02T23:28:50.515Z,99883.75
2023-04-02T23:31:52.236Z,99881.16
2023-04-02T23:34:53.950Z,99874.06
2023-04-02T23:37:55.752Z,99882.88
2023-04-02T23:40:58.886Z,99888.19
2023-04-02T23:44:00.876Z,99889.94
2023-04-02T23:47:02.599Z,99889.91
2023-04-02T23:50:04.924Z,99890.72
2023-04-02T23:53:06.641Z,99894.22
2023-04-02T23:56:10.204Z,99892.41
2023-04-02T23:59:11.912Z,99897.72
